sensor_id;sensor_type;location;lat;lon;timestamp;temperature;humidity
53802;DHT22;39709;53.334;6.534;2022-08-04T00:00:51;20.30;1.00
53802;DHT22;39709;53.334;6.534;2022-08-04T00:03:21;20.30;1.00
53802;DHT22;39709;53.334;6.534;2022-08-04T00:08:35;20.30;1.00
53802;DHT22;39709;53.334;6.534;2022-08-04T00:11:08;20.30;1.00
53802;DHT22;39709;53.334;6.534;2022-08-04T00:13:37;20.30;3.60
53802;DHT22;39709;53.334;6.534;2022-08-04T00:16:08;20.20;4.30
53802;DHT22;39709;53.334;6.534;2022-08-04T00:18:46;20.20;6.50
53802;DHT22;39709;53.334;6.534;2022-08-04T00:21:15;20.20;4.50
53802;DHT22;39709;53.334;6.534;2022-08-04T00:23:44;20.10;4.60
53802;DHT22;39709;53.334;6.534;2022-08-04T00:26:10;20.20;6.80
53802;DHT22;39709;53.334;6.534;2022-08-04T00:28:37;20.20;5.90
53802;DHT22;39709;53.334;6.534;2022-08-04T00:31:04;20.20;8.00
53802;DHT22;39709;53.334;6.534;2022-08-04T00:33:31;20.20;11.00
53802;DHT22;39709;53.334;6.534;2022-08-04T00:35:58;20.10;12.00
53802;DHT22;39709;53.334;6.534;2022-08-04T00:38:25;20.10;12.80
53802;DHT22;39709;53.334;6.534;2022-08-04T00:43:32;20.20;12.60
53802;DHT22;39709;53.334;6.534;2022-08-04T00:49:20;20.20;14.80
53802;DHT22;39709;53.334;6.534;2022-08-04T00:57:50;20.10;25.10
53802;DHT22;39709;53.334;6.534;2022-08-04T01:00:19;20.20;22.80
53802;DHT22;39709;53.334;6.534;2022-08-04T01:13:59;20.10;31.30
53802;DHT22;39709;53.334;6.534;2022-08-04T01:16:30;20.10;33.90
53802;DHT22;39709;53.334;6.534;2022-08-04T01:19:02;20.10;36.70
53802;DHT22;39709;53.334;6.534;2022-08-04T01:26:42;20.10;34.60
53802;DHT22;39709;53.334;6.534;2022-08-04T01:29:10;20.20;35.70
53802;DHT22;39709;53.334;6.534;2022-08-04T01:32:01;20.10;35.40
53802;DHT22;39709;53.334;6.534;2022-08-04T01:34:36;20.10;32.60
53802;DHT22;39709;53.334;6.534;2022-08-04T01:37:47;20.20;31.20
53802;DHT22;39709;53.334;6.534;2022-08-04T01:40:17;20.10;31.80
53802;DHT22;39709;53.334;6.534;2022-08-04T01:42:43;20.10;30.80
53802;DHT22;39709;53.334;6.534;2022-08-04T01:45:12;20.10;35.00
53802;DHT22;39709;53.334;6.534;2022-08-04T01:47:57;20.00;37.30
53802;DHT22;39709;53.334;6.534;2022-08-04T01:50:23;20.10;37.00
53802;DHT22;39709;53.334;6.534;2022-08-04T01:52:53;20.10;38.00
53802;DHT22;39709;53.334;6.534;2022-08-04T01:55:20;20.00;40.10
53802;DHT22;39709;53.334;6.534;2022-08-04T01:57:48;20.00;35.50
53802;DHT22;39709;53.334;6.534;2022-08-04T02:00:19;20.00;36.70
53802;DHT22;39709;53.334;6.534;2022-08-04T02:02:46;19.90;37.10
53802;DHT22;39709;53.334;6.534;2022-08-04T02:05:16;20.00;40.90
53802;DHT22;39709;53.334;6.534;2022-08-04T02:19:10;19.80;46.20
53802;DHT22;39709;53.334;6.534;2022-08-04T02:21:41;19.80;46.90
53802;DHT22;39709;53.334;6.534;2022-08-04T02:24:15;19.90;50.50
53802;DHT22;39709;53.334;6.534;2022-08-04T02:26:47;19.70;48.90
53802;DHT22;39709;53.334;6.534;2022-08-04T02:32:08;19.80;48.00
53802;DHT22;39709;53.334;6.534;2022-08-04T02:35:02;19.70;48.00
53802;DHT22;39709;53.334;6.534;2022-08-04T02:37:31;19.80;49.20
53802;DHT22;39709;53.334;6.534;2022-08-04T02:39:59;19.80;45.40
53802;DHT22;39709;53.334;6.534;2022-08-04T02:42:27;19.80;45.60
53802;DHT22;39709;53.334;6.534;2022-08-04T02:44:56;19.70;47.80
53802;DHT22;39709;53.334;6.534;2022-08-04T02:47:24;19.70;47.80
53802;DHT22;39709;53.334;6.534;2022-08-04T02:49:51;19.60;50.60
53802;DHT22;39709;53.334;6.534;2022-08-04T02:52:18;19.80;52.50
53802;DHT22;39709;53.334;6.534;2022-08-04T02:54:47;19.80;54.50
53802;DHT22;39709;53.334;6.534;2022-08-04T02:57:14;19.60;52.40
53802;DHT22;39709;53.334;6.534;2022-08-04T03:00:07;19.80;49.40
53802;DHT22;39709;53.334;6.534;2022-08-04T03:02:53;19.90;49.10
53802;DHT22;39709;53.334;6.534;2022-08-04T03:05:52;19.80;50.10
53802;DHT22;39709;53.334;6.534;2022-08-04T03:22:58;19.90;44.70
53802;DHT22;39709;53.334;6.534;2022-08-04T03:25:52;19.60;43.60
53802;DHT22;39709;53.334;6.534;2022-08-04T03:28:47;19.80;45.50
53802;DHT22;39709;53.334;6.534;2022-08-04T03:34:36;19.70;45.90
53802;DHT22;39709;53.334;6.534;2022-08-04T04:00:06;19.50;49.10
53802;DHT22;39709;53.334;6.534;2022-08-04T04:03:00;19.70;45.40
53802;DHT22;39709;53.334;6.534;2022-08-04T04:23:20;19.70;39.50
53802;DHT22;39709;53.334;6.534;2022-08-04T04:42:13;20.00;22.10
53802;DHT22;39709;53.334;6.534;2022-08-04T04:44:48;20.10;19.00
53802;DHT22;39709;53.334;6.534;2022-08-04T04:47:40;20.10;25.40
53802;DHT22;39709;53.334;6.534;2022-08-04T04:50:17;20.10;24.20
53802;DHT22;39709;53.334;6.534;2022-08-04T04:52:53;20.20;23.30
53802;DHT22;39709;53.334;6.534;2022-08-04T04:55:28;20.10;20.60
53802;DHT22;39709;53.334;6.534;2022-08-04T04:57:57;20.10;17.40
53802;DHT22;39709;53.334;6.534;2022-08-04T05:00:34;20.20;15.90
53802;DHT22;39709;53.334;6.534;2022-08-04T05:14:05;20.40;16.30
53802;DHT22;39709;53.334;6.534;2022-08-04T05:16:38;20.40;23.20
53802;DHT22;39709;53.334;6.534;2022-08-04T05:22:24;20.40;24.30
53802;DHT22;39709;53.334;6.534;2022-08-04T05:25:07;20.40;30.00
53802;DHT22;39709;53.334;6.534;2022-08-04T05:27:45;20.40;24.80
53802;DHT22;39709;53.334;6.534;2022-08-04T05:30:16;20.50;24.30
53802;DHT22;39709;53.334;6.534;2022-08-04T05:32:59;20.60;25.30
53802;DHT22;39709;53.334;6.534;2022-08-04T05:35:33;20.60;28.30
53802;DHT22;39709;53.334;6.534;2022-08-04T05:38:02;20.90;26.00
53802;DHT22;39709;53.334;6.534;2022-08-04T05:40:28;20.80;19.60
53802;DHT22;39709;53.334;6.534;2022-08-04T05:42:55;20.90;13.80
53802;DHT22;39709;53.334;6.534;2022-08-04T05:45:22;21.10;9.20
53802;DHT22;39709;53.334;6.534;2022-08-04T05:47:50;21.10;11.50
53802;DHT22;39709;53.334;6.534;2022-08-04T05:50:17;21.00;9.50
53802;DHT22;39709;53.334;6.534;2022-08-04T05:52:44;20.90;15.40
53802;DHT22;39709;53.334;6.534;2022-08-04T05:55:11;21.00;22.20
53802;DHT22;39709;53.334;6.534;2022-08-04T05:57:41;20.90;23.00
53802;DHT22;39709;53.334;6.534;2022-08-04T06:00:08;21.00;33.20
53802;DHT22;39709;53.334;6.534;2022-08-04T06:02:34;21.00;30.30
53802;DHT22;39709;53.334;6.534;2022-08-04T06:05:01;21.10;20.90
53802;DHT22;39709;53.334;6.534;2022-08-04T06:07:30;21.30;25.00
53802;DHT22;39709;53.334;6.534;2022-08-04T06:09:55;21.40;15.50
53802;DHT22;39709;53.334;6.534;2022-08-04T06:12:29;21.60;5.40
53802;DHT22;39709;53.334;6.534;2022-08-04T06:14:57;21.90;1.00
53802;DHT22;39709;53.334;6.534;2022-08-04T06:17:31;21.90;1.00
53802;DHT22;39709;53.334;6.534;2022-08-04T06:19:58;22.00;1.00
53802;DHT22;39709;53.334;6.534;2022-08-04T06:22:28;22.20;1.00
53802;DHT22;39709;53.334;6.534;2022-08-04T06:24:54;22.30;1.00
53802;DHT22;39709;53.334;6.534;2022-08-04T06:27:21;22.30;1.00
53802;DHT22;39709;53.334;6.534;2022-08-04T06:29:49;22.30;1.00
53802;DHT22;39709;53.334;6.534;2022-08-04T06:32:16;22.40;1.00
53802;DHT22;39709;53.334;6.534;2022-08-04T06:34:54;22.50;1.00
53802;DHT22;39709;53.334;6.534;2022-08-04T06:37:22;22.40;1.00
53802;DHT22;39709;53.334;6.534;2022-08-04T06:39:49;22.50;1.00
53802;DHT22;39709;53.334;6.534;2022-08-04T06:42:17;22.50;1.00
53802;DHT22;39709;53.334;6.534;2022-08-04T06:44:44;22.60;1.00
53802;DHT22;39709;53.334;6.534;2022-08-04T06:47:11;22.70;1.00
53802;DHT22;39709;53.334;6.534;2022-08-04T06:49:38;22.80;1.00
53802;DHT22;39709;53.334;6.534;2022-08-04T06:52:05;22.90;1.00
53802;DHT22;39709;53.334;6.534;2022-08-04T06:54:31;23.00;1.00
53802;DHT22;39709;53.334;6.534;2022-08-04T06:56:58;23.10;1.00
53802;DHT22;39709;53.334;6.534;2022-08-04T06:59:26;23.20;1.00
53802;DHT22;39709;53.334;6.534;2022-08-04T07:01:53;23.20;1.00
53802;DHT22;39709;53.334;6.534;2022-08-04T07:04:20;23.40;1.00
53802;DHT22;39709;53.334;6.534;2022-08-04T07:06:46;23.40;1.00
53802;DHT22;39709;53.334;6.534;2022-08-04T07:09:11;23.40;1.00
53802;DHT22;39709;53.334;6.534;2022-08-04T07:11:37;23.50;1.00
53802;DHT22;39709;53.334;6.534;2022-08-04T07:14:04;23.50;1.00
53802;DHT22;39709;53.334;6.534;2022-08-04T07:16:31;23.40;1.00
53802;DHT22;39709;53.334;6.534;2022-08-04T07:18:57;23.50;1.00
53802;DHT22;39709;53.334;6.534;2022-08-04T07:21:23;23.50;1.00
53802;DHT22;39709;53.334;6.534;2022-08-04T07:23:51;23.60;1.00
53802;DHT22;39709;53.334;6.534;2022-08-04T07:26:17;23.70;1.00
53802;DHT22;39709;53.334;6.534;2022-08-04T07:28:44;23.80;1.00
53802;DHT22;39709;53.334;6.534;2022-08-04T07:31:15;23.80;1.00
53802;DHT22;39709;53.334;6.534;2022-08-04T07:33:42;23.80;1.00
53802;DHT22;39709;53.334;6.534;2022-08-04T07:36:08;23.80;1.00
53802;DHT22;39709;53.334;6.534;2022-08-04T07:38:34;23.80;1.00
53802;DHT22;39709;53.334;6.534;2022-08-04T07:41:00;23.90;1.00
53802;DHT22;39709;53.334;6.534;2022-08-04T07:43:28;23.90;1.00
53802;DHT22;39709;53.334;6.534;2022-08-04T07:45:55;24.00;1.00
53802;DHT22;39709;53.334;6.534;2022-08-04T07:48:20;24.00;1.00
53802;DHT22;39709;53.334;6.534;2022-08-04T07:50:49;24.10;1.00
53802;DHT22;39709;53.334;6.534;2022-08-04T07:53:15;24.30;1.00
53802;DHT22;39709;53.334;6.534;2022-08-04T07:55:46;24.30;1.00
53802;DHT22;39709;53.334;6.534;2022-08-04T07:58:13;24.30;1.00
53802;DHT22;39709;53.334;6.534;2022-08-04T08:00:38;24.40;1.00
53802;DHT22;39709;53.334;6.534;2022-08-04T08:03:05;24.50;1.00
53802;DHT22;39709;53.334;6.534;2022-08-04T08:05:31;24.70;1.00
53802;DHT22;39709;53.334;6.534;2022-08-04T08:07:58;24.70;1.00
53802;DHT22;39709;53.334;6.534;2022-08-04T08:10:24;24.80;1.00
53802;DHT22;39709;53.334;6.534;2022-08-04T08:12:51;24.70;1.00
53802;DHT22;39709;53.334;6.534;2022-08-04T08:15:18;24.60;1.00
53802;DHT22;39709;53.334;6.534;2022-08-04T08:17:44;24.70;1.00
53802;DHT22;39709;53.334;6.534;2022-08-04T08:20:10;24.70;1.00
53802;DHT22;39709;53.334;6.534;2022-08-04T08:22:36;24.80;1.00
53802;DHT22;39709;53.334;6.534;2022-08-04T08:25:05;24.70;1.00
53802;DHT22;39709;53.334;6.534;2022-08-04T08:27:30;24.80;1.00
53802;DHT22;39709;53.334;6.534;2022-08-04T08:29:57;24.90;1.00
53802;DHT22;39709;53.334;6.534;2022-08-04T08:32:23;24.90;1.00
53802;DHT22;39709;53.334;6.534;2022-08-04T08:34:49;24.80;1.00
53802;DHT22;39709;53.334;6.534;2022-08-04T08:37:34;24.90;1.00
53802;DHT22;39709;53.334;6.534;2022-08-04T08:43:07;25.00;1.00
53802;DHT22;39709;53.334;6.534;2022-08-04T08:45:50;24.90;1.00
53802;DHT22;39709;53.334;6.534;2022-08-04T08:56:46;25.20;1.00
53802;DHT22;39709;53.334;6.534;2022-08-04T08:59:32;25.40;1.00
53802;DHT22;39709;53.334;6.534;2022-08-04T09:05:08;25.40;1.00
53802;DHT22;39709;53.334;6.534;2022-08-04T09:10:25;25.90;1.00
53802;DHT22;39709;53.334;6.534;2022-08-04T09:13:49;26.10;1.00
53802;DHT22;39709;53.334;6.534;2022-08-04T09:16:15;26.20;1.00
53802;DHT22;39709;53.334;6.534;2022-08-04T09:21:52;26.40;1.00
53802;DHT22;39709;53.334;6.534;2022-08-04T09:24:24;26.20;1.00
53802;DHT22;39709;53.334;6.534;2022-08-04T09:27:02;26.20;1.00
53802;DHT22;39709;53.334;6.534;2022-08-04T09:40:43;26.80;1.00
53802;DHT22;39709;53.334;6.534;2022-08-04T09:51:06;26.90;1.00
53802;DHT22;39709;53.334;6.534;2022-08-04T09:53:53;27.00;1.00
53802;DHT22;39709;53.334;6.534;2022-08-04T09:56:37;27.00;1.00
53802;DHT22;39709;53.334;6.534;2022-08-04T10:01:35;27.10;1.00
53802;DHT22;39709;53.334;6.534;2022-08-04T10:04:07;27.20;1.00
53802;DHT22;39709;53.334;6.534;2022-08-04T10:19:56;26.80;1.00
53802;DHT22;39709;53.334;6.534;2022-08-04T10:22:32;26.80;1.00
53802;DHT22;39709;53.334;6.534;2022-08-04T10:28:11;26.90;1.00
53802;DHT22;39709;53.334;6.534;2022-08-04T10:30:39;27.00;1.00
53802;DHT22;39709;53.334;6.534;2022-08-04T10:33:44;26.90;1.00
53802;DHT22;39709;53.334;6.534;2022-08-04T10:36:17;27.00;1.00
53802;DHT22;39709;53.334;6.534;2022-08-04T10:41:32;27.00;1.00
53802;DHT22;39709;53.334;6.534;2022-08-04T10:44:33;26.80;1.00
53802;DHT22;39709;53.334;6.534;2022-08-04T10:47:13;26.80;1.00
53802;DHT22;39709;53.334;6.534;2022-08-04T10:49:49;26.80;1.00
53802;DHT22;39709;53.334;6.534;2022-08-04T10:52:44;26.80;1.00
53802;DHT22;39709;53.334;6.534;2022-08-04T10:55:18;26.70;1.00
53802;DHT22;39709;53.334;6.534;2022-08-04T10:57:51;26.90;1.00
53802;DHT22;39709;53.334;6.534;2022-08-04T11:00:23;26.80;1.00
53802;DHT22;39709;53.334;6.534;2022-08-04T11:03:16;26.80;1.00
53802;DHT22;39709;53.334;6.534;2022-08-04T11:05:56;26.90;1.00
53802;DHT22;39709;53.334;6.534;2022-08-04T11:08:49;26.90;1.00
53802;DHT22;39709;53.334;6.534;2022-08-04T11:14:07;26.50;1.00
53802;DHT22;39709;53.334;6.534;2022-08-04T11:16:52;26.30;1.00
53802;DHT22;39709;53.334;6.534;2022-08-04T11:19:43;26.30;1.00
53802;DHT22;39709;53.334;6.534;2022-08-04T11:22:22;26.40;1.00
53802;DHT22;39709;53.334;6.534;2022-08-04T11:27:46;26.40;1.00
53802;DHT22;39709;53.334;6.534;2022-08-04T11:30:16;26.40;1.00
53802;DHT22;39709;53.334;6.534;2022-08-04T11:38:55;26.40;1.00
53802;DHT22;39709;53.334;6.534;2022-08-04T11:44:30;26.10;1.00
53802;DHT22;39709;53.334;6.534;2022-08-04T11:47:01;26.00;1.00
53802;DHT22;39709;53.334;6.534;2022-08-04T11:49:36;26.20;1.00
53802;DHT22;39709;53.334;6.534;2022-08-04T11:52:07;26.00;1.00
53802;DHT22;39709;53.334;6.534;2022-08-04T11:54:35;26.00;1.00
53802;DHT22;39709;53.334;6.534;2022-08-04T11:57:03;26.00;1.00
53802;DHT22;39709;53.334;6.534;2022-08-04T11:59:29;25.90;1.00
53802;DHT22;39709;53.334;6.534;2022-08-04T12:02:18;26.00;1.00
53802;DHT22;39709;53.334;6.534;2022-08-04T12:04:59;26.20;1.00
53802;DHT22;39709;53.334;6.534;2022-08-04T12:07:42;26.10;1.00
53802;DHT22;39709;53.334;6.534;2022-08-04T12:13:45;26.00;1.00
53802;DHT22;39709;53.334;6.534;2022-08-04T12:16:23;25.80;1.00
53802;DHT22;39709;53.334;6.534;2022-08-04T12:18:59;25.80;1.00
53802;DHT22;39709;53.334;6.534;2022-08-04T12:24:33;25.90;1.00
53802;DHT22;39709;53.334;6.534;2022-08-04T12:27:15;25.90;1.00
53802;DHT22;39709;53.334;6.534;2022-08-04T12:29:41;25.80;1.00
53802;DHT22;39709;53.334;6.534;2022-08-04T12:35:19;25.70;1.00
53802;DHT22;39709;53.334;6.534;2022-08-04T12:40:46;25.70;1.00
53802;DHT22;39709;53.334;6.534;2022-08-04T12:46:04;25.80;1.00
53802;DHT22;39709;53.334;6.534;2022-08-04T12:48:31;25.80;1.00
53802;DHT22;39709;53.334;6.534;2022-08-04T12:50:58;25.80;1.00
53802;DHT22;39709;53.334;6.534;2022-08-04T12:53:38;26.00;1.00
53802;DHT22;39709;53.334;6.534;2022-08-04T12:56:07;26.10;1.00
53802;DHT22;39709;53.334;6.534;2022-08-04T12:58:36;26.20;1.00
53802;DHT22;39709;53.334;6.534;2022-08-04T13:01:06;26.30;1.00
53802;DHT22;39709;53.334;6.534;2022-08-04T13:03:39;26.40;1.00
53802;DHT22;39709;53.334;6.534;2022-08-04T13:06:07;26.40;1.00
53802;DHT22;39709;53.334;6.534;2022-08-04T13:08:37;26.70;1.00
53802;DHT22;39709;53.334;6.534;2022-08-04T13:11:04;26.80;1.00
53802;DHT22;39709;53.334;6.534;2022-08-04T13:13:33;26.70;1.00
53802;DHT22;39709;53.334;6.534;2022-08-04T13:16:03;26.60;1.00
53802;DHT22;39709;53.334;6.534;2022-08-04T13:18:33;26.40;1.00
53802;DHT22;39709;53.334;6.534;2022-08-04T13:21:17;26.70;1.00
53802;DHT22;39709;53.334;6.534;2022-08-04T13:23:44;26.80;1.00
53802;DHT22;39709;53.334;6.534;2022-08-04T13:26:12;26.80;1.00
53802;DHT22;39709;53.334;6.534;2022-08-04T13:28:41;26.40;1.00
53802;DHT22;39709;53.334;6.534;2022-08-04T13:31:12;26.30;1.00
53802;DHT22;39709;53.334;6.534;2022-08-04T13:33:41;26.30;1.00
53802;DHT22;39709;53.334;6.534;2022-08-04T13:36:09;26.10;1.00
53802;DHT22;39709;53.334;6.534;2022-08-04T13:38:45;26.10;1.00
53802;DHT22;39709;53.334;6.534;2022-08-04T13:41:11;25.90;1.00
53802;DHT22;39709;53.334;6.534;2022-08-04T13:43:45;25.70;1.00
53802;DHT22;39709;53.334;6.534;2022-08-04T13:46:26;25.70;1.00
53802;DHT22;39709;53.334;6.534;2022-08-04T13:48:53;25.40;1.00
53802;DHT22;39709;53.334;6.534;2022-08-04T13:51:21;25.30;1.00
53802;DHT22;39709;53.334;6.534;2022-08-04T13:53:59;25.00;1.00
53802;DHT22;39709;53.334;6.534;2022-08-04T13:56:44;25.00;1.00
53802;DHT22;39709;53.334;6.534;2022-08-04T13:59:15;24.90;1.00
53802;DHT22;39709;53.334;6.534;2022-08-04T14:01:44;24.70;1.00
53802;DHT22;39709;53.334;6.534;2022-08-04T14:04:21;24.80;1.00
53802;DHT22;39709;53.334;6.534;2022-08-04T14:06:49;24.70;1.00
53802;DHT22;39709;53.334;6.534;2022-08-04T14:09:18;24.40;1.00
53802;DHT22;39709;53.334;6.534;2022-08-04T14:11:53;24.40;1.00
53802;DHT22;39709;53.334;6.534;2022-08-04T14:25:12;24.20;1.00
53802;DHT22;39709;53.334;6.534;2022-08-04T14:27:49;24.20;1.00
53802;DHT22;39709;53.334;6.534;2022-08-04T14:33:10;24.10;1.00
53802;DHT22;39709;53.334;6.534;2022-08-04T14:35:37;23.70;1.00
53802;DHT22;39709;53.334;6.534;2022-08-04T14:38:09;23.50;1.00
53802;DHT22;39709;53.334;6.534;2022-08-04T14:40:40;23.60;1.00
53802;DHT22;39709;53.334;6.534;2022-08-04T14:43:08;23.80;1.00
53802;DHT22;39709;53.334;6.534;2022-08-04T14:45:41;23.80;1.00
53802;DHT22;39709;53.334;6.534;2022-08-04T14:48:12;23.60;1.00
53802;DHT22;39709;53.334;6.534;2022-08-04T14:50:47;23.30;1.00
53802;DHT22;39709;53.334;6.534;2022-08-04T14:53:19;23.30;1.00
53802;DHT22;39709;53.334;6.534;2022-08-04T14:55:53;23.30;1.00
53802;DHT22;39709;53.334;6.534;2022-08-04T14:58:21;22.90;1.00
53802;DHT22;39709;53.334;6.534;2022-08-04T15:00:48;22.80;1.00
53802;DHT22;39709;53.334;6.534;2022-08-04T15:03:14;22.80;1.00
53802;DHT22;39709;53.334;6.534;2022-08-04T15:05:43;22.70;1.00
53802;DHT22;39709;53.334;6.534;2022-08-04T15:08:12;22.80;1.00
53802;DHT22;39709;53.334;6.534;2022-08-04T15:10:38;22.80;1.00
53802;DHT22;39709;53.334;6.534;2022-08-04T15:13:05;22.90;1.00
53802;DHT22;39709;53.334;6.534;2022-08-04T15:15:31;23.10;1.00
53802;DHT22;39709;53.334;6.534;2022-08-04T15:17:58;23.40;1.00
53802;DHT22;39709;53.334;6.534;2022-08-04T15:20:24;23.70;1.00
53802;DHT22;39709;53.334;6.534;2022-08-04T15:22:50;23.40;1.00
53802;DHT22;39709;53.334;6.534;2022-08-04T15:25:16;23.60;1.00
53802;DHT22;39709;53.334;6.534;2022-08-04T15:27:45;23.50;1.00
53802;DHT22;39709;53.334;6.534;2022-08-04T15:30:13;23.50;1.00
53802;DHT22;39709;53.334;6.534;2022-08-04T15:32:51;23.50;1.00
53802;DHT22;39709;53.334;6.534;2022-08-04T15:35:25;23.30;1.00
53802;DHT22;39709;53.334;6.534;2022-08-04T15:45:56;23.60;1.00
53802;DHT22;39709;53.334;6.534;2022-08-04T15:48:27;23.50;1.00
53802;DHT22;39709;53.334;6.534;2022-08-04T15:53:23;23.40;1.00
53802;DHT22;39709;53.334;6.534;2022-08-04T15:55:49;23.30;1.00
53802;DHT22;39709;53.334;6.534;2022-08-04T15:58:18;23.10;1.00
53802;DHT22;39709;53.334;6.534;2022-08-04T16:19:44;24.50;1.00
53802;DHT22;39709;53.334;6.534;2022-08-04T16:22:01;24.40;1.00
53802;DHT22;39709;53.334;6.534;2022-08-04T16:24:37;24.10;1.00
53802;DHT22;39709;53.334;6.534;2022-08-04T16:27:08;23.80;1.00
53802;DHT22;39709;53.334;6.534;2022-08-04T16:29:41;23.80;1.00
53802;DHT22;39709;53.334;6.534;2022-08-04T16:32:09;23.40;1.00
53802;DHT22;39709;53.334;6.534;2022-08-04T16:37:11;23.30;1.00
53802;DHT22;39709;53.334;6.534;2022-08-04T16:39:38;23.40;1.00
53802;DHT22;39709;53.334;6.534;2022-08-04T16:45:18;23.30;1.00
53802;DHT22;39709;53.334;6.534;2022-08-04T16:50:14;23.80;1.00
53802;DHT22;39709;53.334;6.534;2022-08-04T16:52:50;23.80;1.00
53802;DHT22;39709;53.334;6.534;2022-08-04T16:55:21;24.10;1.00
53802;DHT22;39709;53.334;6.534;2022-08-04T16:57:48;24.20;1.00
53802;DHT22;39709;53.334;6.534;2022-08-04T17:00:15;24.40;1.00
53802;DHT22;39709;53.334;6.534;2022-08-04T17:02:42;24.40;1.00
53802;DHT22;39709;53.334;6.534;2022-08-04T17:05:24;24.20;1.00
53802;DHT22;39709;53.334;6.534;2022-08-04T17:07:54;24.20;1.00
53802;DHT22;39709;53.334;6.534;2022-08-04T17:10:38;24.80;1.00
53802;DHT22;39709;53.334;6.534;2022-08-04T17:13:40;24.90;1.00
53802;DHT22;39709;53.334;6.534;2022-08-04T17:16:11;25.20;1.00
53802;DHT22;39709;53.334;6.534;2022-08-04T17:18:41;25.20;1.00
53802;DHT22;39709;53.334;6.534;2022-08-04T17:21:10;25.20;1.00
53802;DHT22;39709;53.334;6.534;2022-08-04T17:23:39;25.30;1.00
53802;DHT22;39709;53.334;6.534;2022-08-04T17:28:36;25.00;1.00
53802;DHT22;39709;53.334;6.534;2022-08-04T17:31:04;25.30;1.00
53802;DHT22;39709;53.334;6.534;2022-08-04T17:33:31;25.20;1.00
53802;DHT22;39709;53.334;6.534;2022-08-04T17:35:59;24.90;1.00
53802;DHT22;39709;53.334;6.534;2022-08-04T17:38:38;25.30;1.00
53802;DHT22;39709;53.334;6.534;2022-08-04T17:41:07;25.50;1.00
53802;DHT22;39709;53.334;6.534;2022-08-04T17:43:59;25.00;1.00
53802;DHT22;39709;53.334;6.534;2022-08-04T17:54:15;23.50;1.00
53802;DHT22;39709;53.334;6.534;2022-08-04T17:56:49;23.30;1.00
53802;DHT22;39709;53.334;6.534;2022-08-04T17:59:24;23.00;1.00
53802;DHT22;39709;53.334;6.534;2022-08-04T18:04:36;23.10;1.00
53802;DHT22;39709;53.334;6.534;2022-08-04T18:09:34;23.00;1.00
53802;DHT22;39709;53.334;6.534;2022-08-04T18:12:09;23.00;1.00
53802;DHT22;39709;53.334;6.534;2022-08-04T18:17:05;22.30;1.00
53802;DHT22;39709;53.334;6.534;2022-08-04T18:19:31;22.40;1.00
53802;DHT22;39709;53.334;6.534;2022-08-04T18:21:57;22.20;1.00
53802;DHT22;39709;53.334;6.534;2022-08-04T18:24:22;22.30;1.00
53802;DHT22;39709;53.334;6.534;2022-08-04T18:26:48;22.20;1.00
53802;DHT22;39709;53.334;6.534;2022-08-04T18:29:14;22.20;1.00
53802;DHT22;39709;53.334;6.534;2022-08-04T18:31:40;22.20;1.00
53802;DHT22;39709;53.334;6.534;2022-08-04T18:34:06;22.00;1.00
53802;DHT22;39709;53.334;6.534;2022-08-04T18:36:34;21.90;1.00
53802;DHT22;39709;53.334;6.534;2022-08-04T18:39:02;21.90;1.00
53802;DHT22;39709;53.334;6.534;2022-08-04T18:41:28;21.80;1.00
53802;DHT22;39709;53.334;6.534;2022-08-04T18:43:55;21.70;1.00
53802;DHT22;39709;53.334;6.534;2022-08-04T18:46:21;21.70;1.00
53802;DHT22;39709;53.334;6.534;2022-08-04T18:48:47;21.80;1.00
53802;DHT22;39709;53.334;6.534;2022-08-04T18:51:13;21.70;1.00
53802;DHT22;39709;53.334;6.534;2022-08-04T18:53:39;21.60;1.00
53802;DHT22;39709;53.334;6.534;2022-08-04T18:56:05;21.40;1.00
53802;DHT22;39709;53.334;6.534;2022-08-04T18:58:31;21.40;1.00
53802;DHT22;39709;53.334;6.534;2022-08-04T19:00:56;21.50;1.00
53802;DHT22;39709;53.334;6.534;2022-08-04T19:03:22;21.50;1.00
53802;DHT22;39709;53.334;6.534;2022-08-04T19:05:48;21.30;1.00
53802;DHT22;39709;53.334;6.534;2022-08-04T19:08:14;21.20;1.00
53802;DHT22;39709;53.334;6.534;2022-08-04T19:10:40;21.20;1.00
53802;DHT22;39709;53.334;6.534;2022-08-04T19:13:05;21.20;1.00
53802;DHT22;39709;53.334;6.534;2022-08-04T19:15:31;21.20;1.00
53802;DHT22;39709;53.334;6.534;2022-08-04T19:17:56;21.20;1.00
53802;DHT22;39709;53.334;6.534;2022-08-04T19:20:23;21.10;1.00
53802;DHT22;39709;53.334;6.534;2022-08-04T19:22:48;21.00;1.00
53802;DHT22;39709;53.334;6.534;2022-08-04T19:25:14;21.00;1.00
53802;DHT22;39709;53.334;6.534;2022-08-04T19:27:40;21.00;1.00
53802;DHT22;39709;53.334;6.534;2022-08-04T19:30:06;21.00;1.00
53802;DHT22;39709;53.334;6.534;2022-08-04T19:32:32;21.00;1.00
53802;DHT22;39709;53.334;6.534;2022-08-04T19:34:58;20.90;1.00
53802;DHT22;39709;53.334;6.534;2022-08-04T19:37:23;20.80;1.00
53802;DHT22;39709;53.334;6.534;2022-08-04T19:39:49;20.80;1.00
53802;DHT22;39709;53.334;6.534;2022-08-04T19:42:15;20.60;1.00
53802;DHT22;39709;53.334;6.534;2022-08-04T19:44:41;20.50;1.00
53802;DHT22;39709;53.334;6.534;2022-08-04T19:47:07;20.50;1.00
53802;DHT22;39709;53.334;6.534;2022-08-04T19:49:33;20.50;1.00
53802;DHT22;39709;53.334;6.534;2022-08-04T19:51:58;20.40;1.00
53802;DHT22;39709;53.334;6.534;2022-08-04T19:54:25;20.50;1.00
53802;DHT22;39709;53.334;6.534;2022-08-04T19:56:51;20.70;1.00
53802;DHT22;39709;53.334;6.534;2022-08-04T19:59:16;20.70;1.00
53802;DHT22;39709;53.334;6.534;2022-08-04T20:01:42;20.60;1.00
53802;DHT22;39709;53.334;6.534;2022-08-04T20:04:07;20.60;1.00
53802;DHT22;39709;53.334;6.534;2022-08-04T20:06:33;20.60;1.00
53802;DHT22;39709;53.334;6.534;2022-08-04T20:08:59;20.60;1.00
53802;DHT22;39709;53.334;6.534;2022-08-04T20:11:24;20.40;1.00
53802;DHT22;39709;53.334;6.534;2022-08-04T20:13:50;20.30;1.00
53802;DHT22;39709;53.334;6.534;2022-08-04T20:16:16;20.30;1.00
53802;DHT22;39709;53.334;6.534;2022-08-04T20:18:42;20.40;1.00
53802;DHT22;39709;53.334;6.534;2022-08-04T20:21:08;20.40;1.00
53802;DHT22;39709;53.334;6.534;2022-08-04T20:23:34;20.40;1.00
53802;DHT22;39709;53.334;6.534;2022-08-04T20:26:00;20.40;1.00
53802;DHT22;39709;53.334;6.534;2022-08-04T20:28:26;20.30;1.00
53802;DHT22;39709;53.334;6.534;2022-08-04T20:30:52;20.30;1.00
53802;DHT22;39709;53.334;6.534;2022-08-04T20:33:19;20.30;1.00
53802;DHT22;39709;53.334;6.534;2022-08-04T20:35:45;20.10;1.00
53802;DHT22;39709;53.334;6.534;2022-08-04T20:38:11;20.10;1.00
53802;DHT22;39709;53.334;6.534;2022-08-04T20:40:37;20.10;1.00
53802;DHT22;39709;53.334;6.534;2022-08-04T20:43:03;20.00;1.00
53802;DHT22;39709;53.334;6.534;2022-08-04T20:45:29;20.00;1.00
53802;DHT22;39709;53.334;6.534;2022-08-04T20:47:54;20.00;1.00
53802;DHT22;39709;53.334;6.534;2022-08-04T20:50:20;20.00;1.00
53802;DHT22;39709;53.334;6.534;2022-08-04T20:52:46;19.90;1.00
53802;DHT22;39709;53.334;6.534;2022-08-04T20:55:12;19.90;1.00
53802;DHT22;39709;53.334;6.534;2022-08-04T20:57:38;20.00;1.00
53802;DHT22;39709;53.334;6.534;2022-08-04T21:00:05;19.90;1.00